Durham, Oklahoma
Current Conditions -  °F | °C
As of 10:15 PM on Friday 19 Dec 2014 (Local Time) from KHHF Reporting Station
Overcast Overcast  
Wind Chill: 43°   Ceiling: 1900
Heat Index: 43°   Visibility: 10mi
Dew Point: 39°   Wind: 3mph
Humidity: 86%   Direction: 200°SSW
Pressure: 30.15"   Gusts: NA
Location:  35.84°N, 99.92°W
Report Text: KHHF 200415Z AUTO 20003KT 10SM OVC019 06/04 A3015 RMK AO2 T00620040
Loading
Personal Weather Stations






























Interactive Weather Map New forecast layout! Learn more

10-Day Weather Forecast

Advertisements
Track Severe Weather on mobile